sensor_id;sensor_type;location;lat;lon;timestamp;temperature;humidity
70214;DHT22;60138;55.808;37.078;2023-04-15T00:01:31;1.65;29.56
70214;DHT22;60138;55.808;37.078;2023-04-15T00:03:57;1.62;29.35
70214;DHT22;60138;55.808;37.078;2023-04-15T00:06:22;1.58;29.55
70214;DHT22;60138;55.808;37.078;2023-04-15T00:08:48;1.51;29.62
70214;DHT22;60138;55.808;37.078;2023-04-15T00:11:14;1.49;29.68
70214;DHT22;60138;55.808;37.078;2023-04-15T00:13:40;1.45;29.70
70214;DHT22;60138;55.808;37.078;2023-04-15T00:16:06;1.40;30.39
70214;DHT22;60138;55.808;37.078;2023-04-15T00:18:33;1.35;30.18
70214;DHT22;60138;55.808;37.078;2023-04-15T00:20:58;1.29;30.30
70214;DHT22;60138;55.808;37.078;2023-04-15T00:23:24;1.25;30.34
70214;DHT22;60138;55.808;37.078;2023-04-15T00:25:50;1.22;30.33
70214;DHT22;60138;55.808;37.078;2023-04-15T00:28:16;1.18;30.87
70214;DHT22;60138;55.808;37.078;2023-04-15T00:30:42;1.11;30.57
70214;DHT22;60138;55.808;37.078;2023-04-15T00:33:08;1.08;30.58
70214;DHT22;60138;55.808;37.078;2023-04-15T00:35:34;1.06;30.94
70214;DHT22;60138;55.808;37.078;2023-04-15T00:38:00;1.04;30.74
70214;DHT22;60138;55.808;37.078;2023-04-15T00:40:26;1.01;31.12
70214;DHT22;60138;55.808;37.078;2023-04-15T00:42:51;0.97;30.80
70214;DHT22;60138;55.808;37.078;2023-04-15T00:45:17;0.94;31.13
70214;DHT22;60138;55.808;37.078;2023-04-15T00:47:43;0.90;30.93
70214;DHT22;60138;55.808;37.078;2023-04-15T00:50:10;0.87;31.13
70214;DHT22;60138;55.808;37.078;2023-04-15T00:52:37;0.80;31.78
70214;DHT22;60138;55.808;37.078;2023-04-15T00:55:04;0.79;31.30
70214;DHT22;60138;55.808;37.078;2023-04-15T00:57:31;0.79;30.94
70214;DHT22;60138;55.808;37.078;2023-04-15T00:59:57;0.77;30.88
70214;DHT22;60138;55.808;37.078;2023-04-15T01:02:23;0.72;31.36
70214;DHT22;60138;55.808;37.078;2023-04-15T01:04:49;0.68;31.56
70214;DHT22;60138;55.808;37.078;2023-04-15T01:07:15;0.63;31.95
70214;DHT22;60138;55.808;37.078;2023-04-15T01:09:42;0.61;32.02
70214;DHT22;60138;55.808;37.078;2023-04-15T01:12:11;0.61;31.54
70214;DHT22;60138;55.808;37.078;2023-04-15T01:14:38;0.55;31.48
70214;DHT22;60138;55.808;37.078;2023-04-15T01:17:04;0.54;31.57
70214;DHT22;60138;55.808;37.078;2023-04-15T01:19:29;0.47;31.93
70214;DHT22;60138;55.808;37.078;2023-04-15T01:21:55;0.46;32.05
70214;DHT22;60138;55.808;37.078;2023-04-15T01:24:22;0.43;32.35
70214;DHT22;60138;55.808;37.078;2023-04-15T01:26:48;0.40;32.02
70214;DHT22;60138;55.808;37.078;2023-04-15T01:29:14;0.38;32.10
70214;DHT22;60138;55.808;37.078;2023-04-15T01:31:40;0.38;32.38
70214;DHT22;60138;55.808;37.078;2023-04-15T01:34:25;0.35;32.55
70214;DHT22;60138;55.808;37.078;2023-04-15T01:37:11;0.36;32.35
70214;DHT22;60138;55.808;37.078;2023-04-15T01:39:37;0.35;33.08
70214;DHT22;60138;55.808;37.078;2023-04-15T01:42:02;0.34;32.70
70214;DHT22;60138;55.808;37.078;2023-04-15T01:44:29;0.32;32.63
70214;DHT22;60138;55.808;37.078;2023-04-15T01:46:56;0.29;32.55
70214;DHT22;60138;55.808;37.078;2023-04-15T01:49:23;0.28;32.86
70214;DHT22;60138;55.808;37.078;2023-04-15T01:51:50;0.29;32.32
70214;DHT22;60138;55.808;37.078;2023-04-15T01:54:17;0.25;32.66
70214;DHT22;60138;55.808;37.078;2023-04-15T01:56:44;0.23;32.51
70214;DHT22;60138;55.808;37.078;2023-04-15T01:59:12;0.21;32.60
70214;DHT22;60138;55.808;37.078;2023-04-15T02:01:39;0.20;32.67
70214;DHT22;60138;55.808;37.078;2023-04-15T02:04:06;0.17;32.75
70214;DHT22;60138;55.808;37.078;2023-04-15T02:06:32;0.13;32.69
70214;DHT22;60138;55.808;37.078;2023-04-15T02:09:00;0.15;32.59
70214;DHT22;60138;55.808;37.078;2023-04-15T02:11:26;0.13;32.60
70214;DHT22;60138;55.808;37.078;2023-04-15T02:13:53;0.07;33.37
70214;DHT22;60138;55.808;37.078;2023-04-15T02:16:20;0.06;33.38
70214;DHT22;60138;55.808;37.078;2023-04-15T02:18:47;0.05;33.46
70214;DHT22;60138;55.808;37.078;2023-04-15T02:21:14;0.04;33.19
70214;DHT22;60138;55.808;37.078;2023-04-15T02:23:41;0.03;33.30
70214;DHT22;60138;55.808;37.078;2023-04-15T02:26:08;0.01;32.89
70214;DHT22;60138;55.808;37.078;2023-04-15T02:28:35;-0.00;33.12
70214;DHT22;60138;55.808;37.078;2023-04-15T02:31:06;-0.02;33.74
70214;DHT22;60138;55.808;37.078;2023-04-15T02:33:33;-0.01;32.83
70214;DHT22;60138;55.808;37.078;2023-04-15T02:36:00;-0.03;33.47
70214;DHT22;60138;55.808;37.078;2023-04-15T02:38:28;-0.03;33.13
70214;DHT22;60138;55.808;37.078;2023-04-15T02:40:55;-0.03;33.31
70214;DHT22;60138;55.808;37.078;2023-04-15T02:43:22;-0.02;33.25
70214;DHT22;60138;55.808;37.078;2023-04-15T02:45:51;-0.02;33.35
70214;DHT22;60138;55.808;37.078;2023-04-15T02:48:18;-0.02;33.46
70214;DHT22;60138;55.808;37.078;2023-04-15T02:50:45;0.01;33.18
70214;DHT22;60138;55.808;37.078;2023-04-15T02:53:14;0.05;33.42
70214;DHT22;60138;55.808;37.078;2023-04-15T02:55:40;0.06;33.56
70214;DHT22;60138;55.808;37.078;2023-04-15T02:58:07;0.07;33.55
70214;DHT22;60138;55.808;37.078;2023-04-15T03:00:34;0.08;33.45
70214;DHT22;60138;55.808;37.078;2023-04-15T03:03:02;0.10;33.63
70214;DHT22;60138;55.808;37.078;2023-04-15T03:05:30;0.13;33.45
70214;DHT22;60138;55.808;37.078;2023-04-15T03:07:57;0.18;33.25
70214;DHT22;60138;55.808;37.078;2023-04-15T03:10:23;0.20;33.53
70214;DHT22;60138;55.808;37.078;2023-04-15T03:12:50;0.24;33.18
70214;DHT22;60138;55.808;37.078;2023-04-15T03:15:21;0.30;32.92
70214;DHT22;60138;55.808;37.078;2023-04-15T03:17:50;0.33;33.12
70214;DHT22;60138;55.808;37.078;2023-04-15T03:20:17;0.37;32.96
70214;DHT22;60138;55.808;37.078;2023-04-15T03:22:44;0.42;33.05
70214;DHT22;60138;55.808;37.078;2023-04-15T03:25:12;0.50;32.67
70214;DHT22;60138;55.808;37.078;2023-04-15T03:27:38;0.55;32.71
70214;DHT22;60138;55.808;37.078;2023-04-15T03:30:06;0.61;32.63
70214;DHT22;60138;55.808;37.078;2023-04-15T03:32:35;0.66;32.44
70214;DHT22;60138;55.808;37.078;2023-04-15T03:35:02;0.73;32.60
70214;DHT22;60138;55.808;37.078;2023-04-15T03:37:29;0.79;32.88
70214;DHT22;60138;55.808;37.078;2023-04-15T03:39:56;0.89;32.62
70214;DHT22;60138;55.808;37.078;2023-04-15T03:42:23;0.96;32.44
70214;DHT22;60138;55.808;37.078;2023-04-15T03:44:50;1.04;32.44
70214;DHT22;60138;55.808;37.078;2023-04-15T03:47:17;1.11;32.31
70214;DHT22;60138;55.808;37.078;2023-04-15T03:49:44;1.19;32.21
70214;DHT22;60138;55.808;37.078;2023-04-15T03:52:10;1.27;32.03
70214;DHT22;60138;55.808;37.078;2023-04-15T03:54:37;1.32;32.33
70214;DHT22;60138;55.808;37.078;2023-04-15T03:57:04;1.40;32.07
70214;DHT22;60138;55.808;37.078;2023-04-15T03:59:31;1.48;32.02
70214;DHT22;60138;55.808;37.078;2023-04-15T04:01:58;1.55;32.20
70214;DHT22;60138;55.808;37.078;2023-04-15T04:04:25;1.63;31.65
70214;DHT22;60138;55.808;37.078;2023-04-15T04:06:52;1.69;31.66
70214;DHT22;60138;55.808;37.078;2023-04-15T04:09:19;1.76;31.48
70214;DHT22;60138;55.808;37.078;2023-04-15T04:11:45;1.82;31.49
70214;DHT22;60138;55.808;37.078;2023-04-15T04:14:12;1.88;31.23
70214;DHT22;60138;55.808;37.078;2023-04-15T04:16:39;1.95;31.25
70214;DHT22;60138;55.808;37.078;2023-04-15T04:19:06;2.01;31.43
70214;DHT22;60138;55.808;37.078;2023-04-15T04:21:33;2.07;31.26
70214;DHT22;60138;55.808;37.078;2023-04-15T04:24:00;2.11;31.51
70214;DHT22;60138;55.808;37.078;2023-04-15T04:26:27;2.17;31.26
70214;DHT22;60138;55.808;37.078;2023-04-15T04:28:54;2.22;31.15
70214;DHT22;60138;55.808;37.078;2023-04-15T04:31:20;2.26;30.90
70214;DHT22;60138;55.808;37.078;2023-04-15T04:33:47;2.29;30.23
70214;DHT22;60138;55.808;37.078;2023-04-15T04:36:14;2.32;30.61
70214;DHT22;60138;55.808;37.078;2023-04-15T04:38:41;2.36;30.29
70214;DHT22;60138;55.808;37.078;2023-04-15T04:41:08;2.39;29.95
70214;DHT22;60138;55.808;37.078;2023-04-15T04:43:35;2.43;30.19
70214;DHT22;60138;55.808;37.078;2023-04-15T04:46:02;2.46;29.77
70214;DHT22;60138;55.808;37.078;2023-04-15T04:48:29;2.49;29.76
70214;DHT22;60138;55.808;37.078;2023-04-15T04:50:55;2.53;30.02
70214;DHT22;60138;55.808;37.078;2023-04-15T04:53:22;2.56;30.05
70214;DHT22;60138;55.808;37.078;2023-04-15T04:55:49;2.61;30.09
70214;DHT22;60138;55.808;37.078;2023-04-15T04:58:16;2.68;29.57
70214;DHT22;60138;55.808;37.078;2023-04-15T05:00:43;2.71;29.58
70214;DHT22;60138;55.808;37.078;2023-04-15T05:03:10;2.78;29.14
70214;DHT22;60138;55.808;37.078;2023-04-15T05:05:37;2.83;29.45
70214;DHT22;60138;55.808;37.078;2023-04-15T05:08:04;2.88;29.57
70214;DHT22;60138;55.808;37.078;2023-04-15T05:10:31;2.95;29.58
70214;DHT22;60138;55.808;37.078;2023-04-15T05:12:58;3.00;28.68
70214;DHT22;60138;55.808;37.078;2023-04-15T05:15:25;3.05;29.34
70214;DHT22;60138;55.808;37.078;2023-04-15T05:17:52;3.12;29.26
70214;DHT22;60138;55.808;37.078;2023-04-15T05:20:19;3.19;29.40
70214;DHT22;60138;55.808;37.078;2023-04-15T05:22:46;3.25;29.35
70214;DHT22;60138;55.808;37.078;2023-04-15T05:25:12;3.35;29.64
70214;DHT22;60138;55.808;37.078;2023-04-15T05:27:39;3.42;29.31
70214;DHT22;60138;55.808;37.078;2023-04-15T05:30:07;3.49;28.74
70214;DHT22;60138;55.808;37.078;2023-04-15T05:32:34;3.56;28.86
70214;DHT22;60138;55.808;37.078;2023-04-15T05:35:00;3.62;28.12
70214;DHT22;60138;55.808;37.078;2023-04-15T05:37:27;3.67;28.56
70214;DHT22;60138;55.808;37.078;2023-04-15T05:39:54;3.70;28.07
70214;DHT22;60138;55.808;37.078;2023-04-15T05:42:21;3.74;28.84
70214;DHT22;60138;55.808;37.078;2023-04-15T05:44:48;3.78;28.42
70214;DHT22;60138;55.808;37.078;2023-04-15T05:47:15;3.84;28.93
70214;DHT22;60138;55.808;37.078;2023-04-15T05:49:42;3.84;28.01
70214;DHT22;60138;55.808;37.078;2023-04-15T05:52:09;3.87;28.39
70214;DHT22;60138;55.808;37.078;2023-04-15T05:54:35;3.91;27.33
70214;DHT22;60138;55.808;37.078;2023-04-15T05:57:02;3.93;27.15
70214;DHT22;60138;55.808;37.078;2023-04-15T05:59:29;3.98;28.42
70214;DHT22;60138;55.808;37.078;2023-04-15T06:01:56;3.97;28.20
70214;DHT22;60138;55.808;37.078;2023-04-15T06:04:23;3.95;27.41
70214;DHT22;60138;55.808;37.078;2023-04-15T06:06:50;4.00;28.42
70214;DHT22;60138;55.808;37.078;2023-04-15T06:09:17;4.01;27.81
70214;DHT22;60138;55.808;37.078;2023-04-15T06:11:44;3.98;28.08
70214;DHT22;60138;55.808;37.078;2023-04-15T06:14:11;4.00;27.54
70214;DHT22;60138;55.808;37.078;2023-04-15T06:16:38;4.03;27.45
70214;DHT22;60138;55.808;37.078;2023-04-15T06:19:04;4.06;28.03
70214;DHT22;60138;55.808;37.078;2023-04-15T06:21:31;4.05;27.78
70214;DHT22;60138;55.808;37.078;2023-04-15T06:23:58;4.03;27.90
70214;DHT22;60138;55.808;37.078;2023-04-15T06:26:25;4.04;27.10
70214;DHT22;60138;55.808;37.078;2023-04-15T06:28:52;4.06;27.31
70214;DHT22;60138;55.808;37.078;2023-04-15T06:31:19;4.06;27.18
70214;DHT22;60138;55.808;37.078;2023-04-15T06:33:47;4.09;27.99
70214;DHT22;60138;55.808;37.078;2023-04-15T06:36:14;4.09;27.48
70214;DHT22;60138;55.808;37.078;2023-04-15T06:38:41;4.10;27.62
70214;DHT22;60138;55.808;37.078;2023-04-15T06:41:08;4.13;27.69
70214;DHT22;60138;55.808;37.078;2023-04-15T06:43:35;4.16;28.07
70214;DHT22;60138;55.808;37.078;2023-04-15T06:46:02;4.19;27.00
70214;DHT22;60138;55.808;37.078;2023-04-15T06:48:29;4.20;26.62
70214;DHT22;60138;55.808;37.078;2023-04-15T06:50:56;4.23;27.13
70214;DHT22;60138;55.808;37.078;2023-04-15T06:53:24;4.27;27.15
70214;DHT22;60138;55.808;37.078;2023-04-15T06:55:51;4.29;26.36
70214;DHT22;60138;55.808;37.078;2023-04-15T06:58:18;4.36;27.33
70214;DHT22;60138;55.808;37.078;2023-04-15T07:00:45;4.46;28.09
70214;DHT22;60138;55.808;37.078;2023-04-15T07:03:12;4.53;27.41
70214;DHT22;60138;55.808;37.078;2023-04-15T07:05:40;4.61;26.32
70214;DHT22;60138;55.808;37.078;2023-04-15T07:08:06;4.72;27.12
70214;DHT22;60138;55.808;37.078;2023-04-15T07:10:33;4.84;27.04
70214;DHT22;60138;55.808;37.078;2023-04-15T07:13:00;4.93;26.89
70214;DHT22;60138;55.808;37.078;2023-04-15T07:15:27;4.97;26.57
70214;DHT22;60138;55.808;37.078;2023-04-15T07:17:54;5.08;26.94
70214;DHT22;60138;55.808;37.078;2023-04-15T07:20:21;5.19;26.42
70214;DHT22;60138;55.808;37.078;2023-04-15T07:22:48;5.33;26.39
70214;DHT22;60138;55.808;37.078;2023-04-15T07:25:15;5.42;24.62
70214;DHT22;60138;55.808;37.078;2023-04-15T07:27:41;5.52;24.57
70214;DHT22;60138;55.808;37.078;2023-04-15T07:30:09;5.63;23.73
70214;DHT22;60138;55.808;37.078;2023-04-15T07:32:36;5.75;26.55
70214;DHT22;60138;55.808;37.078;2023-04-15T07:35:03;5.86;23.90
70214;DHT22;60138;55.808;37.078;2023-04-15T07:37:30;5.96;23.98
70214;DHT22;60138;55.808;37.078;2023-04-15T07:39:57;6.09;25.75
70214;DHT22;60138;55.808;37.078;2023-04-15T07:42:24;6.22;22.74
70214;DHT22;60138;55.808;37.078;2023-04-15T07:44:51;6.39;24.42
70214;DHT22;60138;55.808;37.078;2023-04-15T07:47:17;6.52;26.14
70214;DHT22;60138;55.808;37.078;2023-04-15T07:49:44;6.68;24.72
70214;DHT22;60138;55.808;37.078;2023-04-15T07:52:11;6.82;24.80
70214;DHT22;60138;55.808;37.078;2023-04-15T07:54:38;6.84;25.46
70214;DHT22;60138;55.808;37.078;2023-04-15T07:57:05;6.88;21.73
70214;DHT22;60138;55.808;37.078;2023-04-15T07:59:34;6.91;21.87
70214;DHT22;60138;55.808;37.078;2023-04-15T08:02:01;7.00;23.95
70214;DHT22;60138;55.808;37.078;2023-04-15T08:04:28;7.08;22.39
70214;DHT22;60138;55.808;37.078;2023-04-15T08:06:55;7.20;23.30
70214;DHT22;60138;55.808;37.078;2023-04-15T08:09:22;7.31;22.61
70214;DHT22;60138;55.808;37.078;2023-04-15T08:11:49;7.46;23.69
70214;DHT22;60138;55.808;37.078;2023-04-15T08:14:16;7.54;23.40
70214;DHT22;60138;55.808;37.078;2023-04-15T08:16:43;7.55;23.21
70214;DHT22;60138;55.808;37.078;2023-04-15T08:19:10;7.67;22.47
70214;DHT22;60138;55.808;37.078;2023-04-15T08:21:39;7.79;21.79
70214;DHT22;60138;55.808;37.078;2023-04-15T08:24:23;7.89;21.95
70214;DHT22;60138;55.808;37.078;2023-04-15T08:27:29;8.01;21.76
70214;DHT22;60138;55.808;37.078;2023-04-15T08:35:44;8.06;19.83
70214;DHT22;60138;55.808;37.078;2023-04-15T08:38:38;8.08;18.79
70214;DHT22;60138;55.808;37.078;2023-04-15T08:44:00;8.05;24.50
70214;DHT22;60138;55.808;37.078;2023-04-15T08:46:30;8.07;19.66
70214;DHT22;60138;55.808;37.078;2023-04-15T08:48:58;8.12;19.45
70214;DHT22;60138;55.808;37.078;2023-04-15T08:51:25;8.18;20.34
70214;DHT22;60138;55.808;37.078;2023-04-15T08:53:53;8.24;23.41
70214;DHT22;60138;55.808;37.078;2023-04-15T08:56:24;8.23;23.28
70214;DHT22;60138;55.808;37.078;2023-04-15T08:58:52;8.24;19.64
70214;DHT22;60138;55.808;37.078;2023-04-15T09:01:19;8.34;20.02
70214;DHT22;60138;55.808;37.078;2023-04-15T09:03:51;8.38;19.51
70214;DHT22;60138;55.808;37.078;2023-04-15T09:06:20;8.47;21.85
70214;DHT22;60138;55.808;37.078;2023-04-15T09:08:49;8.50;18.68
70214;DHT22;60138;55.808;37.078;2023-04-15T09:11:16;8.49;19.96
70214;DHT22;60138;55.808;37.078;2023-04-15T09:13:43;8.46;17.98
70214;DHT22;60138;55.808;37.078;2023-04-15T09:16:13;8.48;20.36
70214;DHT22;60138;55.808;37.078;2023-04-15T09:18:40;8.55;20.51
70214;DHT22;60138;55.808;37.078;2023-04-15T09:21:30;8.66;22.54
70214;DHT22;60138;55.808;37.078;2023-04-15T09:24:00;8.68;21.13
70214;DHT22;60138;55.808;37.078;2023-04-15T09:26:37;8.70;17.63
70214;DHT22;60138;55.808;37.078;2023-04-15T09:29:14;8.77;20.59
70214;DHT22;60138;55.808;37.078;2023-04-15T09:31:52;8.91;21.85
70214;DHT22;60138;55.808;37.078;2023-04-15T09:34:34;9.06;18.92
70214;DHT22;60138;55.808;37.078;2023-04-15T09:37:01;9.18;20.65
70214;DHT22;60138;55.808;37.078;2023-04-15T09:39:47;9.29;20.19
70214;DHT22;60138;55.808;37.078;2023-04-15T09:42:15;9.46;22.31
70214;DHT22;60138;55.808;37.078;2023-04-15T09:44:42;9.62;21.02
70214;DHT22;60138;55.808;37.078;2023-04-15T09:47:09;9.79;20.69
70214;DHT22;60138;55.808;37.078;2023-04-15T09:49:56;9.88;19.45
70214;DHT22;60138;55.808;37.078;2023-04-15T09:52:23;9.92;20.40
70214;DHT22;60138;55.808;37.078;2023-04-15T09:54:52;10.01;19.79
70214;DHT22;60138;55.808;37.078;2023-04-15T09:57:19;10.05;15.80
70214;DHT22;60138;55.808;37.078;2023-04-15T09:59:46;10.12;19.91
70214;DHT22;60138;55.808;37.078;2023-04-15T10:02:14;10.26;20.86
70214;DHT22;60138;55.808;37.078;2023-04-15T10:04:41;10.37;18.53
70214;DHT22;60138;55.808;37.078;2023-04-15T10:07:10;10.48;20.24
70214;DHT22;60138;55.808;37.078;2023-04-15T10:09:38;10.56;19.02
70214;DHT22;60138;55.808;37.078;2023-04-15T10:12:05;10.64;21.38
70214;DHT22;60138;55.808;37.078;2023-04-15T10:14:34;10.72;22.53
70214;DHT22;60138;55.808;37.078;2023-04-15T10:17:03;10.81;20.20
70214;DHT22;60138;55.808;37.078;2023-04-15T10:19:32;10.90;19.99
70214;DHT22;60138;55.808;37.078;2023-04-15T10:21:59;11.01;16.90
70214;DHT22;60138;55.808;37.078;2023-04-15T10:24:26;11.13;16.34
70214;DHT22;60138;55.808;37.078;2023-04-15T10:26:53;11.24;19.83
70214;DHT22;60138;55.808;37.078;2023-04-15T10:29:21;11.38;17.26
70214;DHT22;60138;55.808;37.078;2023-04-15T10:31:49;11.46;17.75
70214;DHT22;60138;55.808;37.078;2023-04-15T10:34:17;11.54;17.66
70214;DHT22;60138;55.808;37.078;2023-04-15T10:36:44;11.63;17.49
70214;DHT22;60138;55.808;37.078;2023-04-15T10:42:13;11.72;16.92
70214;DHT22;60138;55.808;37.078;2023-04-15T10:44:42;11.85;17.45
70214;DHT22;60138;55.808;37.078;2023-04-15T10:47:14;11.96;18.52
70214;DHT22;60138;55.808;37.078;2023-04-15T10:49:44;12.07;15.71
70214;DHT22;60138;55.808;37.078;2023-04-15T10:52:11;12.12;17.16
70214;DHT22;60138;55.808;37.078;2023-04-15T10:54:38;12.17;16.61
70214;DHT22;60138;55.808;37.078;2023-04-15T10:59:36;12.23;17.81
70214;DHT22;60138;55.808;37.078;2023-04-15T11:02:05;12.34;16.48
70214;DHT22;60138;55.808;37.078;2023-04-15T11:04:54;12.36;15.90
70214;DHT22;60138;55.808;37.078;2023-04-15T11:12:40;12.65;16.93
70214;DHT22;60138;55.808;37.078;2023-04-15T11:17:52;12.69;18.39
70214;DHT22;60138;55.808;37.078;2023-04-15T11:20:19;12.73;15.79
70214;DHT22;60138;55.808;37.078;2023-04-15T11:22:51;12.78;16.98
70214;DHT22;60138;55.808;37.078;2023-04-15T11:27:49;12.90;16.19
70214;DHT22;60138;55.808;37.078;2023-04-15T11:30:18;12.93;17.25
70214;DHT22;60138;55.808;37.078;2023-04-15T11:32:45;12.93;15.35
70214;DHT22;60138;55.808;37.078;2023-04-15T11:35:12;12.93;14.51
70214;DHT22;60138;55.808;37.078;2023-04-15T11:37:39;13.03;17.96
70214;DHT22;60138;55.808;37.078;2023-04-15T11:40:07;13.06;17.99
70214;DHT22;60138;55.808;37.078;2023-04-15T11:42:34;13.21;19.92
70214;DHT22;60138;55.808;37.078;2023-04-15T11:45:08;13.58;16.20
70214;DHT22;60138;55.808;37.078;2023-04-15T11:47:36;13.93;17.74
70214;DHT22;60138;55.808;37.078;2023-04-15T11:50:22;14.27;14.56
70214;DHT22;60138;55.808;37.078;2023-04-15T11:52:59;14.66;14.66
70214;DHT22;60138;55.808;37.078;2023-04-15T11:55:26;14.97;12.75
70214;DHT22;60138;55.808;37.078;2023-04-15T11:58:20;15.25;13.47
70214;DHT22;60138;55.808;37.078;2023-04-15T12:03:43;15.60;13.66
70214;DHT22;60138;55.808;37.078;2023-04-15T12:06:21;15.65;17.45
70214;DHT22;60138;55.808;37.078;2023-04-15T12:11:56;15.93;16.13
70214;DHT22;60138;55.808;37.078;2023-04-15T12:14:26;15.93;14.03
70214;DHT22;60138;55.808;37.078;2023-04-15T12:16:55;16.02;12.29
70214;DHT22;60138;55.808;37.078;2023-04-15T12:21:57;16.32;14.46
70214;DHT22;60138;55.808;37.078;2023-04-15T12:24:23;16.41;12.52
70214;DHT22;60138;55.808;37.078;2023-04-15T12:26:52;16.52;13.91
70214;DHT22;60138;55.808;37.078;2023-04-15T12:29:18;16.58;14.92
70214;DHT22;60138;55.808;37.078;2023-04-15T12:31:54;16.80;15.14
70214;DHT22;60138;55.808;37.078;2023-04-15T12:34:30;16.86;13.33
70214;DHT22;60138;55.808;37.078;2023-04-15T12:36:57;16.92;13.40
70214;DHT22;60138;55.808;37.078;2023-04-15T12:39:25;17.07;14.94
70214;DHT22;60138;55.808;37.078;2023-04-15T12:41:51;17.14;11.87
70214;DHT22;60138;55.808;37.078;2023-04-15T12:44:17;17.33;14.21
70214;DHT22;60138;55.808;37.078;2023-04-15T12:46:44;17.56;13.40
70214;DHT22;60138;55.808;37.078;2023-04-15T12:49:09;17.58;14.36
70214;DHT22;60138;55.808;37.078;2023-04-15T12:51:35;17.72;13.59
70214;DHT22;60138;55.808;37.078;2023-04-15T12:54:01;17.78;14.91
70214;DHT22;60138;55.808;37.078;2023-04-15T12:56:26;17.85;17.25
70214;DHT22;60138;55.808;37.078;2023-04-15T12:58:52;18.04;15.45
70214;DHT22;60138;55.808;37.078;2023-04-15T13:01:18;18.11;12.65
70214;DHT22;60138;55.808;37.078;2023-04-15T13:03:44;18.13;12.14
70214;DHT22;60138;55.808;37.078;2023-04-15T13:06:09;18.09;12.54
70214;DHT22;60138;55.808;37.078;2023-04-15T13:08:35;18.15;12.94
70214;DHT22;60138;55.808;37.078;2023-04-15T13:11:02;18.23;13.81
70214;DHT22;60138;55.808;37.078;2023-04-15T13:13:28;18.08;11.14
70214;DHT22;60138;55.808;37.078;2023-04-15T13:15:53;18.02;13.22
70214;DHT22;60138;55.808;37.078;2023-04-15T13:18:19;18.03;15.49
70214;DHT22;60138;55.808;37.078;2023-04-15T13:20:45;18.24;12.83
70214;DHT22;60138;55.808;37.078;2023-04-15T13:23:10;18.37;12.07
70214;DHT22;60138;55.808;37.078;2023-04-15T13:25:36;18.61;11.87
70214;DHT22;60138;55.808;37.078;2023-04-15T13:28:02;18.83;11.52
70214;DHT22;60138;55.808;37.078;2023-04-15T13:30:28;19.05;15.15
70214;DHT22;60138;55.808;37.078;2023-04-15T13:32:53;19.25;14.45
70214;DHT22;60138;55.808;37.078;2023-04-15T13:35:19;19.40;14.21
70214;DHT22;60138;55.808;37.078;2023-04-15T13:37:46;19.41;9.46
70214;DHT22;60138;55.808;37.078;2023-04-15T13:40:12;19.16;10.34
70214;DHT22;60138;55.808;37.078;2023-04-15T13:42:38;19.00;10.76
70214;DHT22;60138;55.808;37.078;2023-04-15T13:45:05;18.95;10.37
70214;DHT22;60138;55.808;37.078;2023-04-15T13:47:31;19.20;8.63
70214;DHT22;60138;55.808;37.078;2023-04-15T13:49:56;19.57;12.49
70214;DHT22;60138;55.808;37.078;2023-04-15T13:52:22;19.70;10.50
70214;DHT22;60138;55.808;37.078;2023-04-15T13:54:48;19.54;10.80
70214;DHT22;60138;55.808;37.078;2023-04-15T13:57:14;19.18;12.61
70214;DHT22;60138;55.808;37.078;2023-04-15T13:59:40;19.12;15.01
70214;DHT22;60138;55.808;37.078;2023-04-15T14:02:06;19.32;12.02
70214;DHT22;60138;55.808;37.078;2023-04-15T14:04:32;19.39;9.53
70214;DHT22;60138;55.808;37.078;2023-04-15T14:06:57;19.74;12.50
70214;DHT22;60138;55.808;37.078;2023-04-15T14:09:23;19.90;16.19
70214;DHT22;60138;55.808;37.078;2023-04-15T14:11:50;19.90;13.63
70214;DHT22;60138;55.808;37.078;2023-04-15T14:14:16;20.02;15.70
70214;DHT22;60138;55.808;37.078;2023-04-15T14:16:41;19.88;13.07
70214;DHT22;60138;55.808;37.078;2023-04-15T14:19:07;19.75;13.47
70214;DHT22;60138;55.808;37.078;2023-04-15T14:21:33;19.84;12.19
70214;DHT22;60138;55.808;37.078;2023-04-15T14:23:59;20.01;12.07
70214;DHT22;60138;55.808;37.078;2023-04-15T14:26:24;19.88;13.62
70214;DHT22;60138;55.808;37.078;2023-04-15T14:28:50;19.83;11.22
70214;DHT22;60138;55.808;37.078;2023-04-15T14:31:17;19.45;11.90
70214;DHT22;60138;55.808;37.078;2023-04-15T14:33:43;18.76;13.98
70214;DHT22;60138;55.808;37.078;2023-04-15T14:36:09;18.28;13.74
70214;DHT22;60138;55.808;37.078;2023-04-15T14:38:35;18.09;12.79
70214;DHT22;60138;55.808;37.078;2023-04-15T14:41:01;17.79;12.31
70214;DHT22;60138;55.808;37.078;2023-04-15T14:43:26;17.65;14.13
70214;DHT22;60138;55.808;37.078;2023-04-15T14:45:52;17.47;13.96
70214;DHT22;60138;55.808;37.078;2023-04-15T14:48:18;17.33;16.65
70214;DHT22;60138;55.808;37.078;2023-04-15T14:50:43;17.00;14.20
70214;DHT22;60138;55.808;37.078;2023-04-15T14:53:09;16.69;12.71
70214;DHT22;60138;55.808;37.078;2023-04-15T14:55:35;16.47;12.60
70214;DHT22;60138;55.808;37.078;2023-04-15T14:58:00;16.19;14.44
70214;DHT22;60138;55.808;37.078;2023-04-15T15:00:26;15.92;13.19
70214;DHT22;60138;55.808;37.078;2023-04-15T15:02:52;15.75;14.55
70214;DHT22;60138;55.808;37.078;2023-04-15T15:05:18;15.54;13.97
70214;DHT22;60138;55.808;37.078;2023-04-15T15:07:44;15.34;13.83
70214;DHT22;60138;55.808;37.078;2023-04-15T15:10:09;15.11;11.40
70214;DHT22;60138;55.808;37.078;2023-04-15T15:12:35;14.82;14.36
70214;DHT22;60138;55.808;37.078;2023-04-15T15:15:02;14.55;14.42
70214;DHT22;60138;55.808;37.078;2023-04-15T15:17:31;14.32;15.03
70214;DHT22;60138;55.808;37.078;2023-04-15T15:19:56;14.07;15.06
70214;DHT22;60138;55.808;37.078;2023-04-15T15:22:22;13.84;13.65
70214;DHT22;60138;55.808;37.078;2023-04-15T15:24:48;13.63;15.61
70214;DHT22;60138;55.808;37.078;2023-04-15T15:27:14;13.40;15.29
70214;DHT22;60138;55.808;37.078;2023-04-15T15:29:39;13.21;16.22
70214;DHT22;60138;55.808;37.078;2023-04-15T15:32:05;13.04;16.77
70214;DHT22;60138;55.808;37.078;2023-04-15T15:34:31;12.81;14.86
70214;DHT22;60138;55.808;37.078;2023-04-15T15:36:56;12.59;15.40
70214;DHT22;60138;55.808;37.078;2023-04-15T15:39:22;12.43;15.92
70214;DHT22;60138;55.808;37.078;2023-04-15T15:41:49;12.23;15.37
70214;DHT22;60138;55.808;37.078;2023-04-15T15:44:14;12.06;16.51
70214;DHT22;60138;55.808;37.078;2023-04-15T15:46:40;11.91;16.94
70214;DHT22;60138;55.808;37.078;2023-04-15T15:49:06;11.77;16.99
70214;DHT22;60138;55.808;37.078;2023-04-15T15:51:32;11.66;16.72
70214;DHT22;60138;55.808;37.078;2023-04-15T15:53:58;11.53;17.06
70214;DHT22;60138;55.808;37.078;2023-04-15T15:56:26;11.38;16.70
70214;DHT22;60138;55.808;37.078;2023-04-15T15:58:52;11.23;17.39
70214;DHT22;60138;55.808;37.078;2023-04-15T16:01:18;11.05;17.49